createdAt,value
2022-08-28T00:02:04.630Z,10.2
2022-08-28T00:04:03.685Z,5.7
2022-08-28T00:06:03.667Z,8.0
2022-08-28T00:10:03.759Z,9.0
2022-08-28T00:12:05.352Z,6.1
2022-08-28T00:14:03.267Z,8.3
2022-08-28T00:16:03.506Z,6.1
2022-08-28T00:18:04.781Z,9.9
2022-08-28T00:20:04.553Z,7.5
2022-08-28T00:22:03.274Z,8.9
2022-08-28T00:24:02.879Z,7.3
2022-08-28T00:26:03.221Z,5.5
2022-08-28T00:28:08.742Z,11.9
2022-08-28T00:30:03.525Z,5.9
2022-08-28T00:32:02.757Z,8.8
2022-08-28T00:34:02.678Z,8.7
2022-08-28T00:36:02.731Z,6.9
2022-08-28T00:38:03.666Z,6.8
2022-08-28T00:42:01.847Z,7.9
2022-08-28T00:44:09.520Z,5.6
2022-08-28T00:46:03.538Z,8.8
2022-08-28T00:48:01.324Z,8.6
2022-08-28T00:50:02.648Z,9.2
2022-08-28T00:52:04.851Z,7.9
2022-08-28T00:56:08.627Z,9.8
2022-08-28T00:58:00.548Z,10.3
2022-08-28T01:00:00.589Z,7.6
2022-08-28T01:04:01.387Z,7.0
2022-08-28T01:06:00.161Z,4.7
2022-08-28T01:08:00.669Z,7.6
2022-08-28T01:10:00.161Z,5.9
2022-08-28T01:12:05.603Z,7.1
2022-08-28T01:14:01.880Z,7.1
2022-08-28T01:16:00.592Z,7.7
2022-08-28T01:18:08.083Z,6.5
2022-08-28T01:20:04.445Z,8.3
2022-08-28T01:22:10.547Z,7.6
2022-08-28T01:24:04.290Z,8.9
2022-08-28T01:25:59.601Z,7.1
2022-08-28T01:28:03.121Z,9.1
2022-08-28T01:29:58.660Z,7.1
2022-08-28T01:31:58.583Z,6.6
2022-08-28T01:33:59.583Z,7.7
2022-08-28T01:35:58.355Z,6.4
2022-08-28T01:37:59.814Z,7.9
2022-08-28T01:40:00.289Z,6.0
2022-08-28T01:41:59.807Z,7.8
2022-08-28T01:43:58.252Z,7.7
2022-08-28T01:46:01.285Z,9.2
2022-08-28T01:47:57.321Z,6.7
2022-08-28T01:49:57.337Z,10.3
2022-08-28T01:51:57.375Z,6.7
2022-08-28T01:53:57.217Z,9.5
2022-08-28T01:55:58.921Z,6.7
2022-08-28T01:57:57.292Z,7.7
2022-08-28T01:59:56.563Z,6.7
2022-08-28T02:01:56.587Z,8.5
2022-08-28T02:07:57.145Z,7.2
2022-08-28T02:09:55.942Z,6.9
2022-08-28T02:13:56.320Z,8.1
2022-08-28T02:15:55.937Z,9.3
2022-08-28T02:17:56.414Z,6.3
2022-08-28T02:19:55.758Z,6.4
2022-08-28T02:21:55.801Z,8.4
2022-08-28T02:23:55.425Z,7.2
2022-08-28T02:25:55.077Z,9.7
2022-08-28T02:27:55.083Z,7.4
2022-08-28T02:31:54.839Z,8.9
2022-08-28T02:33:54.895Z,6.8
2022-08-28T02:35:54.468Z,6.3
2022-08-28T02:37:54.587Z,8.3
2022-08-28T02:39:55.566Z,9.4
2022-08-28T02:41:53.931Z,9.0
2022-08-28T02:43:53.985Z,10.6
2022-08-28T02:45:54.110Z,9.8
2022-08-28T02:49:53.827Z,7.7
2022-08-28T02:51:56.224Z,9.9
2022-08-28T02:53:53.100Z,8.9
2022-08-28T02:55:53.030Z,9.8
2022-08-28T02:57:53.749Z,10.0
2022-08-28T02:59:52.686Z,11.6
2022-08-28T03:01:52.806Z,8.4
2022-08-28T03:03:52.872Z,10.6
2022-08-28T03:05:52.394Z,11.9
2022-08-28T03:07:52.457Z,12.4
2022-08-28T03:09:51.935Z,10.4
2022-08-28T03:11:52.969Z,8.5
2022-08-28T03:13:52.283Z,9.2
2022-08-28T03:15:52.291Z,10.2
2022-08-28T03:17:51.871Z,9.4
2022-08-28T03:19:51.770Z,8.5
2022-08-28T03:21:52.334Z,10.1
2022-08-28T03:23:51.190Z,10.4
2022-08-28T03:25:51.758Z,9.5
2022-08-28T03:27:51.632Z,10.4
2022-08-28T03:29:50.402Z,12.4
2022-08-28T03:31:50.389Z,7.8
2022-08-28T03:33:51.721Z,10.5
2022-08-28T03:35:50.214Z,16.6
2022-08-28T03:37:49.912Z,11.1
2022-08-28T03:39:49.937Z,15.0
2022-08-28T03:41:50.507Z,12.7
2022-08-28T03:43:50.334Z,10.6
2022-08-28T03:45:52.320Z,13.2
2022-08-28T03:47:50.831Z,9.0
2022-08-28T03:49:54.527Z,12.6
2022-08-28T03:51:49.082Z,8.9
2022-08-28T03:53:49.255Z,11.5
2022-08-28T03:55:49.007Z,12.5
2022-08-28T03:57:50.016Z,8.4
2022-08-28T03:59:50.937Z,10.5
2022-08-28T04:01:48.660Z,12.7
2022-08-28T04:03:49.137Z,10.5
2022-08-28T04:05:48.351Z,10.2
2022-08-28T04:07:48.177Z,11.4
2022-08-28T04:09:48.275Z,15.0
2022-08-28T04:11:47.855Z,13.3
2022-08-28T04:13:47.980Z,10.8
2022-08-28T04:15:57.364Z,11.4
2022-08-28T04:17:48.521Z,12.5
2022-08-28T04:19:50.848Z,10.5
2022-08-28T04:25:46.965Z,12.0
2022-08-28T04:27:47.737Z,12.7
2022-08-28T04:29:47.471Z,13.4
2022-08-28T04:31:46.577Z,12.2
2022-08-28T04:33:46.421Z,11.3
2022-08-28T04:35:46.230Z,10.5
2022-08-28T04:37:46.323Z,11.5
2022-08-28T04:39:46.078Z,13.0
2022-08-28T04:43:46.403Z,12.4
2022-08-28T04:45:45.546Z,11.6
2022-08-28T04:47:45.224Z,12.5
2022-08-28T04:49:45.162Z,12.7
2022-08-28T04:51:44.984Z,11.3
2022-08-28T04:53:44.768Z,11.2
2022-08-28T04:55:53.847Z,10.9
2022-08-28T04:57:44.499Z,14.3
2022-08-28T04:59:44.739Z,17.0
2022-08-28T05:01:44.321Z,12.8
2022-08-28T05:03:44.680Z,14.3
2022-08-28T05:05:47.213Z,15.1
2022-08-28T05:07:45.016Z,12.4
2022-08-28T05:09:44.364Z,12.0
2022-08-28T05:11:44.794Z,14.3
2022-08-28T05:13:44.171Z,10.7
2022-08-28T05:17:43.427Z,11.8
2022-08-28T05:19:43.089Z,11.1
2022-08-28T05:21:43.296Z,11.4
2022-08-28T05:23:42.439Z,14.1
2022-08-28T05:25:44.524Z,12.3
2022-08-28T05:27:42.195Z,12.2
2022-08-28T05:29:42.068Z,14.6
2022-08-28T05:33:41.972Z,15.0
2022-08-28T05:35:43.993Z,10.4
2022-08-28T05:37:41.400Z,11.0
2022-08-28T05:39:41.191Z,11.1
2022-08-28T05:41:43.869Z,10.1
2022-08-28T05:43:40.838Z,11.4
2022-08-28T05:47:42.522Z,10.9
2022-08-28T05:49:40.492Z,13.5
2022-08-28T05:51:42.068Z,13.9
2022-08-28T05:53:41.983Z,13.1
2022-08-28T05:57:40.690Z,13.2
2022-08-28T05:59:39.807Z,15.0
2022-08-28T06:01:41.707Z,12.1
2022-08-28T06:03:42.099Z,11.9
2022-08-28T06:05:39.666Z,16.1
2022-08-28T06:09:38.918Z,11.0
2022-08-28T06:11:44.636Z,11.1
2022-08-28T06:13:38.614Z,10.8
2022-08-28T06:15:41.645Z,13.9
2022-08-28T06:17:39.315Z,11.1
2022-08-28T06:19:41.540Z,12.7
2022-08-28T06:21:40.236Z,13.7
2022-08-28T06:23:38.246Z,11.3
2022-08-28T06:25:38.453Z,12.5
2022-08-28T06:27:38.329Z,12.8
2022-08-28T06:29:38.791Z,13.5
2022-08-28T06:31:38.120Z,13.6
2022-08-28T06:33:37.025Z,13.2
2022-08-28T06:35:39.820Z,10.9
2022-08-28T06:37:37.013Z,9.8
2022-08-28T06:39:36.882Z,11.2
2022-08-28T06:41:40.022Z,11.3
2022-08-28T06:43:37.095Z,11.4
2022-08-28T06:45:40.079Z,12.9
2022-08-28T06:47:35.904Z,9.5
2022-08-28T06:53:37.344Z,8.7
2022-08-28T06:55:35.742Z,10.0
2022-08-28T06:57:36.017Z,10.8
2022-08-28T06:59:34.919Z,10.7
2022-08-28T07:03:34.521Z,12.0
2022-08-28T07:07:34.558Z,10.3
2022-08-28T07:09:34.076Z,14.4
2022-08-28T07:11:35.683Z,12.4
2022-08-28T07:13:34.054Z,10.4
2022-08-28T07:15:33.658Z,15.3
2022-08-28T07:17:33.475Z,14.1
2022-08-28T07:19:33.448Z,12.7
2022-08-28T07:21:39.029Z,11.6
2022-08-28T07:23:35.776Z,10.7
2022-08-28T07:25:33.214Z,11.4
2022-08-28T07:27:33.533Z,11.0
2022-08-28T07:29:32.820Z,13.3
2022-08-28T07:31:33.050Z,13.2
2022-08-28T07:33:33.230Z,13.0
2022-08-28T07:35:32.147Z,14.4
2022-08-28T07:37:31.920Z,9.9
2022-08-28T07:39:31.937Z,13.5
2022-08-28T07:41:34.378Z,13.2
2022-08-28T07:43:41.230Z,15.5
2022-08-28T07:45:31.120Z,13.5
2022-08-28T07:47:31.439Z,11.5
2022-08-28T07:49:33.167Z,10.4
2022-08-28T07:51:31.076Z,10.7
2022-08-28T07:53:35.805Z,16.3
2022-08-28T07:55:30.787Z,12.3
2022-08-28T07:57:31.096Z,11.8
2022-08-28T07:59:36.551Z,10.9
2022-08-28T08:01:30.848Z,12.3
2022-08-28T08:03:30.594Z,11.4
2022-08-28T08:05:29.542Z,10.9
2022-08-28T08:07:29.562Z,8.6
2022-08-28T08:09:29.566Z,11.3
2022-08-28T08:15:31.357Z,10.8
2022-08-28T08:17:29.388Z,9.2
2022-08-28T08:21:30.421Z,9.8
2022-08-28T08:23:28.158Z,8.5
2022-08-28T08:25:28.053Z,9.9
2022-08-28T08:27:27.930Z,8.5
2022-08-28T08:29:30.751Z,10.2
2022-08-28T08:31:31.323Z,12.3
2022-08-28T08:33:27.368Z,9.8
2022-08-28T08:35:27.458Z,8.4
2022-08-28T08:37:27.083Z,10.6
2022-08-28T08:39:27.069Z,7.4
2022-08-28T08:41:30.092Z,8.0
2022-08-28T08:45:29.515Z,12.1
2022-08-28T08:47:34.712Z,11.4
2022-08-28T08:49:31.937Z,9.7
2022-08-28T08:51:39.773Z,8.4
2022-08-28T08:53:33.712Z,9.9
2022-08-28T08:55:30.389Z,10.3
2022-08-28T08:59:26.289Z,12.3
2022-08-28T09:01:30.364Z,8.6
2022-08-28T09:03:40.410Z,10.1
2022-08-28T09:05:39.193Z,9.9
2022-08-28T09:07:33.763Z,9.9
2022-08-28T09:09:30.457Z,8.2
2022-08-28T09:11:34.336Z,12.6
2022-08-28T09:13:31.302Z,10.3
2022-08-28T09:15:31.060Z,12.5
2022-08-28T09:17:33.049Z,8.3
2022-08-28T09:19:25.294Z,8.7
2022-08-28T09:21:29.564Z,11.4
2022-08-28T09:23:27.134Z,8.2
2022-08-28T09:25:44.067Z,10.2
2022-08-28T09:29:27.641Z,11.4
2022-08-28T09:31:31.462Z,8.9
2022-08-28T09:33:36.978Z,9.9
2022-08-28T09:39:26.488Z,10.4
2022-08-28T09:41:33.569Z,10.5
2022-08-28T09:45:27.303Z,8.7
2022-08-28T09:47:34.409Z,9.7
2022-08-28T09:49:26.800Z,7.7
2022-08-28T09:51:28.485Z,8.7
2022-08-28T09:53:23.131Z,12.9
2022-08-28T09:55:29.677Z,6.5
2022-08-28T09:57:23.026Z,7.9
2022-08-28T10:01:35.816Z,6.8
2022-08-28T10:03:29.826Z,10.6
2022-08-28T10:05:37.024Z,8.2
2022-08-28T10:07:32.503Z,7.6
2022-08-28T10:09:29.631Z,7.2
2022-08-28T10:11:29.126Z,8.3
2022-08-28T10:13:29.438Z,6.9
2022-08-28T10:19:37.766Z,10.0
2022-08-28T10:23:32.550Z,9.0
2022-08-28T10:25:29.639Z,9.0
2022-08-28T10:27:37.894Z,8.5
2022-08-28T10:29:34.411Z,9.5
2022-08-28T10:31:33.073Z,8.9
2022-08-28T10:33:38.719Z,6.5
2022-08-28T10:35:26.552Z,8.6
2022-08-28T10:39:35.038Z,8.7
2022-08-28T10:41:28.128Z,7.3
2022-08-28T10:45:24.002Z,9.6
2022-08-28T10:47:24.622Z,7.4
2022-08-28T10:49:27.656Z,9.9
2022-08-28T10:51:34.821Z,8.8
2022-08-28T10:53:27.435Z,9.2
2022-08-28T10:55:24.106Z,8.4
2022-08-28T10:59:22.264Z,7.9
2022-08-28T11:01:27.398Z,7.8
2022-08-28T11:03:34.411Z,6.9
2022-08-28T11:05:23.832Z,9.5
2022-08-28T11:07:27.074Z,7.0
2022-08-28T11:09:29.919Z,7.3
2022-08-28T11:11:41.616Z,7.0
2022-08-28T11:13:40.870Z,9.8
2022-08-28T11:15:41.006Z,5.2
2022-08-28T11:17:36.740Z,10.6
2022-08-28T11:19:30.841Z,8.0
2022-08-28T11:23:29.380Z,8.3
2022-08-28T11:25:32.598Z,6.7
2022-08-28T11:27:28.348Z,8.9
2022-08-28T11:31:32.053Z,6.7
2022-08-28T11:33:37.190Z,7.2
2022-08-28T11:39:21.303Z,6.6
2022-08-28T11:41:25.649Z,6.6
2022-08-28T11:45:40.876Z,6.8
2022-08-28T11:47:40.854Z,7.0
2022-08-28T11:49:40.842Z,6.6
2022-08-28T11:51:40.752Z,7.2
2022-08-28T11:53:32.981Z,6.5
2022-08-28T11:55:28.221Z,7.0
2022-08-28T11:59:38.993Z,7.8
2022-08-28T12:01:27.074Z,8.5
2022-08-28T12:03:30.484Z,8.7
2022-08-28T12:07:23.770Z,5.8
2022-08-28T12:09:36.651Z,7.6
2022-08-28T12:11:41.202Z,4.1
2022-08-28T12:13:41.078Z,5.8
2022-08-28T12:15:41.835Z,5.0
2022-08-28T12:17:31.082Z,7.0
2022-08-28T12:19:27.760Z,5.5
2022-08-28T12:21:25.526Z,5.4
2022-08-28T12:25:26.937Z,4.8
2022-08-28T12:27:22.998Z,5.8
2022-08-28T12:29:28.302Z,8.2
2022-08-28T12:31:46.478Z,5.2
2022-08-28T12:33:31.288Z,11.4
2022-08-28T12:37:28.654Z,5.5
2022-08-28T12:39:22.325Z,6.4
2022-08-28T12:43:30.060Z,5.5
2022-08-28T12:45:26.768Z,4.0
2022-08-28T12:49:30.153Z,4.0
2022-08-28T12:51:24.573Z,5.9
2022-08-28T12:53:22.035Z,5.7
2022-08-28T12:55:24.609Z,6.2
2022-08-28T12:57:24.295Z,7.0
2022-08-28T12:59:23.349Z,6.1
2022-08-28T13:01:28.217Z,5.6
2022-08-28T13:03:22.405Z,4.6
2022-08-28T13:05:29.020Z,7.6
2022-08-28T13:07:27.387Z,6.9
2022-08-28T13:09:25.585Z,5.7
2022-08-28T13:11:22.477Z,6.4
2022-08-28T13:13:27.208Z,5.2
2022-08-28T13:15:41.782Z,5.6
2022-08-28T13:17:41.781Z,5.9
2022-08-28T13:19:27.175Z,4.0
2022-08-28T13:21:34.874Z,4.4
2022-08-28T13:23:27.798Z,5.6
2022-08-28T13:25:24.235Z,7.2
2022-08-28T13:27:23.505Z,4.9
2022-08-28T13:29:23.627Z,4.1
2022-08-28T13:31:28.339Z,7.9
2022-08-28T13:33:24.621Z,4.4
2022-08-28T13:37:40.991Z,5.6
2022-08-28T13:39:23.285Z,6.2
2022-08-28T13:41:22.541Z,7.9
2022-08-28T13:43:24.892Z,5.4
2022-08-28T13:49:23.185Z,5.6
2022-08-28T13:51:25.277Z,6.0
2022-08-28T13:55:23.265Z,5.4
2022-08-28T13:59:23.478Z,4.1
2022-08-28T14:01:40.050Z,6.3
2022-08-28T14:03:33.183Z,6.0
2022-08-28T14:05:24.593Z,4.9
2022-08-28T14:09:26.014Z,4.8
2022-08-28T14:11:25.308Z,8.1
2022-08-28T14:13:26.487Z,4.5
2022-08-28T14:15:23.566Z,4.5
2022-08-28T14:17:23.569Z,5.6
2022-08-28T14:19:24.496Z,3.8
2022-08-28T14:21:23.630Z,4.7
2022-08-28T14:23:23.811Z,7.9
2022-08-28T14:27:23.802Z,6.6
2022-08-28T14:29:24.319Z,4.5
2022-08-28T14:31:26.472Z,6.5
2022-08-28T14:35:25.617Z,3.7
2022-08-28T14:37:24.037Z,5.7
2022-08-28T14:41:25.961Z,5.9
2022-08-28T14:45:24.438Z,5.9
2022-08-28T14:51:25.980Z,4.0
2022-08-28T14:53:24.494Z,3.8
2022-08-28T14:55:25.649Z,5.6
2022-08-28T14:57:24.589Z,4.5
2022-08-28T15:05:24.818Z,6.7
2022-08-28T15:07:24.793Z,5.3
2022-08-28T15:09:26.091Z,3.7
2022-08-28T15:11:28.759Z,6.3
2022-08-28T15:13:25.038Z,4.0
2022-08-28T15:15:25.062Z,4.4
2022-08-28T15:17:33.641Z,5.2
2022-08-28T15:23:25.695Z,4.5
2022-08-28T15:25:25.361Z,3.8
2022-08-28T15:29:26.173Z,3.6
2022-08-28T15:33:25.529Z,4.9
2022-08-28T15:35:25.672Z,8.7
2022-08-28T15:37:25.791Z,3.5
2022-08-28T15:43:27.003Z,4.1
2022-08-28T15:45:26.076Z,3.9
2022-08-28T15:47:26.073Z,3.8
2022-08-28T15:49:28.038Z,9.0
2022-08-28T15:51:26.205Z,3.7
2022-08-28T15:55:26.344Z,3.2
2022-08-28T15:57:26.016Z,4.6
2022-08-28T15:59:38.096Z,6.8
2022-08-28T16:01:26.307Z,6.3
2022-08-28T16:03:26.273Z,3.8
2022-08-28T16:05:31.202Z,4.1
2022-08-28T16:09:26.331Z,3.4
2022-08-28T16:11:26.693Z,4.0
2022-08-28T16:15:26.499Z,3.4
2022-08-28T16:17:26.501Z,7.4
2022-08-28T16:19:27.218Z,2.5
2022-08-28T16:21:27.522Z,3.5
2022-08-28T16:23:26.713Z,5.2
2022-08-28T16:25:26.930Z,5.2
2022-08-28T16:29:27.078Z,4.5
2022-08-28T16:31:26.855Z,3.7
2022-08-28T16:33:26.940Z,5.5
2022-08-28T16:37:26.737Z,5.4
2022-08-28T16:39:27.049Z,5.3
2022-08-28T16:41:27.538Z,4.0
2022-08-28T16:43:27.914Z,4.2
2022-08-28T16:45:26.903Z,4.5
2022-08-28T16:47:31.649Z,2.4
2022-08-28T16:51:28.448Z,4.9
2022-08-28T16:53:27.175Z,2.7
2022-08-28T16:55:27.505Z,5.2
2022-08-28T16:57:28.469Z,4.3
2022-08-28T16:59:26.953Z,3.8
2022-08-28T17:01:27.601Z,4.5
2022-08-28T17:03:27.125Z,4.1
2022-08-28T17:05:26.985Z,4.8
2022-08-28T17:07:27.552Z,2.6
2022-08-28T17:11:27.999Z,3.8
2022-08-28T17:13:26.984Z,3.3
2022-08-28T17:15:28.365Z,5.6
2022-08-28T17:17:27.753Z,5.9
2022-08-28T17:21:36.922Z,3.4
2022-08-28T17:23:26.999Z,4.3
2022-08-28T17:27:27.508Z,3.9
2022-08-28T17:29:26.976Z,3.9
2022-08-28T17:31:27.014Z,2.7
2022-08-28T17:33:27.110Z,4.1
2022-08-28T17:41:26.762Z,5.9
2022-08-28T17:45:27.014Z,5.1
2022-08-28T17:49:26.942Z,2.7
2022-08-28T17:51:33.138Z,5.8
2022-08-28T17:53:27.908Z,4.1
2022-08-28T17:59:26.917Z,4.6
2022-08-28T18:01:26.885Z,5.3
2022-08-28T18:05:26.894Z,5.3
2022-08-28T18:07:26.605Z,3.9
2022-08-28T18:09:27.261Z,4.1
2022-08-28T18:11:27.210Z,6.3
2022-08-28T18:13:26.337Z,3.6
2022-08-28T18:15:26.367Z,3.4
2022-08-28T18:17:27.221Z,3.1
2022-08-28T18:19:25.982Z,4.1
2022-08-28T18:21:27.994Z,5.6
2022-08-28T18:23:26.056Z,4.2
2022-08-28T18:27:27.708Z,5.2
2022-08-28T18:29:25.927Z,3.5
2022-08-28T18:31:25.904Z,5.1
2022-08-28T18:33:26.133Z,3.5
2022-08-28T18:35:31.840Z,6.0
2022-08-28T18:37:25.557Z,4.9
2022-08-28T18:39:29.822Z,4.2
2022-08-28T18:41:32.608Z,3.6
2022-08-28T18:43:25.335Z,4.8
2022-08-28T18:45:25.506Z,3.8
2022-08-28T18:47:25.064Z,6.0
2022-08-28T18:51:25.329Z,4.6
2022-08-28T18:53:25.444Z,6.3
2022-08-28T18:55:28.465Z,3.5
2022-08-28T18:57:25.145Z,5.9
2022-08-28T18:59:25.315Z,3.0
2022-08-28T19:01:24.905Z,3.2
2022-08-28T19:03:25.099Z,5.6
2022-08-28T19:09:31.613Z,2.7
2022-08-28T19:11:24.529Z,3.1
2022-08-28T19:13:24.351Z,4.0
2022-08-28T19:15:24.320Z,5.0
2022-08-28T19:17:25.361Z,4.8
2022-08-28T19:19:24.318Z,2.8
2022-08-28T19:21:25.179Z,5.3
2022-08-28T19:23:24.189Z,5.1
2022-08-28T19:25:28.238Z,5.0
2022-08-28T19:27:23.698Z,8.3
2022-08-28T19:29:23.814Z,5.0
2022-08-28T19:33:23.285Z,5.3
2022-08-28T19:35:24.507Z,3.2
2022-08-28T19:37:24.405Z,3.3
2022-08-28T19:39:24.553Z,3.6
2022-08-28T19:41:23.704Z,3.4
2022-08-28T19:45:22.674Z,5.0
2022-08-28T19:47:22.701Z,2.7
2022-08-28T19:49:22.844Z,4.8
2022-08-28T19:51:24.011Z,5.2
2022-08-28T19:53:22.117Z,2.6
2022-08-28T19:55:25.130Z,5.8
2022-08-28T19:57:22.468Z,4.2
2022-08-28T19:59:26.504Z,3.2
2022-08-28T20:03:21.851Z,3.9
2022-08-28T20:05:22.056Z,5.4
2022-08-28T20:07:21.717Z,5.8
2022-08-28T20:09:21.697Z,4.3
2022-08-28T20:11:23.948Z,4.7
2022-08-28T20:13:21.259Z,4.0
2022-08-28T20:15:20.982Z,4.0
2022-08-28T20:17:21.128Z,3.8
2022-08-28T20:19:21.625Z,5.8
2022-08-28T20:21:25.860Z,4.5
2022-08-28T20:23:20.498Z,4.3
2022-08-28T20:25:21.115Z,5.3
2022-08-28T20:27:20.609Z,4.2
2022-08-28T20:29:23.037Z,5.2
2022-08-28T20:31:20.617Z,3.7
2022-08-28T20:33:20.372Z,5.2
2022-08-28T20:37:19.947Z,5.4
2022-08-28T20:39:20.411Z,3.7
2022-08-28T20:41:20.228Z,5.2
2022-08-28T20:43:19.102Z,3.8
2022-08-28T20:47:18.893Z,5.3
2022-08-28T20:51:28.537Z,6.3
2022-08-28T20:55:18.389Z,5.4
2022-08-28T20:57:21.827Z,5.9
2022-08-28T20:59:19.099Z,3.6
2022-08-28T21:01:18.570Z,5.3
2022-08-28T21:03:18.588Z,6.9
2022-08-28T21:05:17.873Z,4.6
2022-08-28T21:07:20.530Z,7.3
2022-08-28T21:09:17.724Z,4.8
2022-08-28T21:15:17.348Z,5.5
2022-08-28T21:17:17.779Z,4.9
2022-08-28T21:19:17.330Z,5.0
2022-08-28T21:21:17.240Z,8.7
2022-08-28T21:23:17.053Z,6.1
2022-08-28T21:25:17.905Z,3.3
2022-08-28T21:27:18.478Z,5.1
2022-08-28T21:29:18.988Z,4.8
2022-08-28T21:33:16.090Z,4.5
2022-08-28T21:35:17.226Z,4.6
2022-08-28T21:37:16.012Z,5.7
2022-08-28T21:39:18.839Z,4.3
2022-08-28T21:43:15.486Z,3.7
2022-08-28T21:45:15.212Z,4.6
2022-08-28T21:47:15.219Z,4.2
2022-08-28T21:49:14.903Z,4.1
2022-08-28T21:51:17.126Z,6.3
2022-08-28T21:53:15.532Z,5.3
2022-08-28T21:55:16.402Z,6.6
2022-08-28T21:57:15.366Z,4.7
2022-08-28T21:59:14.438Z,9.3
2022-08-28T22:01:16.239Z,5.2
2022-08-28T22:07:13.972Z,4.5
2022-08-28T22:09:13.304Z,4.7
2022-08-28T22:13:15.621Z,5.0
2022-08-28T22:15:12.908Z,5.0
2022-08-28T22:19:12.750Z,5.4
2022-08-28T22:21:23.534Z,5.5
2022-08-28T22:23:12.120Z,4.8
2022-08-28T22:27:12.849Z,5.5
2022-08-28T22:29:11.710Z,5.4
2022-08-28T22:37:12.627Z,4.8
2022-08-28T22:45:11.454Z,4.2
2022-08-28T22:47:10.719Z,4.4
2022-08-28T22:49:10.174Z,5.6
2022-08-28T22:51:12.203Z,6.6
2022-08-28T22:53:10.234Z,7.1
2022-08-28T22:55:12.530Z,4.2
2022-08-28T22:59:09.836Z,3.0
2022-08-28T23:01:13.061Z,5.4
2022-08-28T23:03:09.628Z,4.8
2022-08-28T23:05:09.780Z,4.7
2022-08-28T23:07:09.055Z,4.8
2022-08-28T23:09:08.572Z,4.4
2022-08-28T23:11:09.419Z,5.3
2022-08-28T23:13:08.418Z,4.1
2022-08-28T23:15:13.484Z,5.0
2022-08-28T23:17:07.728Z,4.3
2022-08-28T23:19:09.185Z,4.4
2022-08-28T23:21:07.683Z,4.7
2022-08-28T23:23:07.542Z,5.3
2022-08-28T23:25:08.424Z,3.9
2022-08-28T23:27:32.377Z,6.3
2022-08-28T23:29:07.041Z,4.9
2022-08-28T23:31:07.507Z,6.6
2022-08-28T23:33:08.467Z,5.1
2022-08-28T23:35:07.763Z,4.4
2022-08-28T23:37:06.090Z,5.0
2022-08-28T23:39:06.058Z,4.2
2022-08-28T23:41:06.539Z,5.4
2022-08-28T23:45:07.451Z,5.8
2022-08-28T23:47:04.807Z,11.6
2022-08-28T23:49:04.838Z,5.6
2022-08-28T23:51:07.709Z,5.8
2022-08-28T23:53:04.152Z,8.5
